Terminal Aerodrome Forecast
Issued by NWS Dodge City, KS

Home | Current Version | Previous Version | Text Only | Print | Product List | Glossary Off
Versions: 1 2 3 4 5 6 7 8 9 10 11 12 13 14 15 16 17 18 19 20 21 22 23 24 25 26 27 28 29 30 31 32 33 34 35

000
FTUS43 KDDC 300500
TAFDDC
TAF
KDDC 300533Z 3006/3106 13007KT P6SM BKN070
     FM300700 12007KT 5SM -SHRA OVC035
      TEMPO 3008/3012 2SM -TSRA OVC025CB
     FM301200 10008KT 2SM -TSRA OVC015CB
     FM302100 06012KT P6SM BKN020=

USA.gov is the U.S. government's official web portal to all federal, state and local government web resources and services.